Pagrindinis puslapis
METAR-TAF:

METAR-TAF

Oro uostai :

Tarptautinis Ženevos oro uostas

Ženeva, Šveicarija

platuma: 46-15N, ilguma: 006-08E, Aukštis: 420 m

Dabartinis oras

Ataskaita buvo paskelbta 19 minutes, ne 08:20 UTC
Vėjas 2 kt iš Pietvakarių
Temperatūra 9°C
Drėgmė 53%
Slėgis 1031 hPa
Matomumas 10 km arba daugiau
Mažai debesys ne aukštis 6000 ft

METAR: LSGG 230820Z 22002KT 9999 FEW060 09/M00 Q1031 NOSIG

Laikas: 09:39 (08:39 UTC)

Prognozė

Ataskaita buvo paskelbta 14 minutes, ne 08:25 UTC
Prognozė galioja nuo 23 metu 09 UTC su 24 metu 15 UTC
Vėjas 2 kt iš Pietvakarių
Matomumas 10 km arba daugiau
Išsisklaidę debesys ne aukštis 6000 ft
Tapsmas
nuo 23 metu 10 UTC su 23 metu 12 UTC
Vėjas 13 kt iš Pietvakarių
Tapsmas
nuo 23 metu 18 UTC su 23 metu 21 UTC
Vėjas 3 kt iš Pietvakarių

TAF: LSGG 230825Z 2309/2415 23002KT 9999 SCT060 TX17/2315Z TN05/2406Z TX18/2415Z BECMG 2310/2312 23013KT BECMG 2318/2321 23003KT

Orai ataskaitas ir orų prognozės (METAR, TAF).

turimą stotys yra geltonos ir raudonos taškus žemėlapyje.

Perkelti pele per norėdami pamatyti stoties vardą.

Tada spustelėkite, norėdami matyti oro stebėjimo ir prognozės.

Norėdami pakeisti žemėlapį: spustelėkite ant žalios mygtukų su juodo kryžiaus žemyn,; žalią mygtuką su brūkšneliu, jei norite nutolinti; arba žalių rodyklių gretimoms žemėlapius.


METAR-TAF: